51.8°F
Current conditions from King Hill
Updated every 5 minutes
 
  Wednesday August 20, 2014

Station Historical Data
Daily Summary for November 1, 2011 Units:  Both    English   Metric
« Previous Day
Next Day »
Daily Weekly Monthly Yearly Custom
  High: Low: Average:
Temperature: 54.6 °F /  12.6 °C 35.2 °F /  1.8 °C 43.4 °F /  6.3 °C
Dew Point: 36.4 °F /  2.4 °C 26.8 °F /  -2.9 °C 32 °F /  0 °C
Humidity: 79% 48% 65%
Wind Speed: 7.0mph /  11.3km/h - 2.3mph /  3.7km/h
Wind Gust: 13.0mph /  20.9km/h - -
Wind- - SSW
Pressure: 30.32 in /  1026.6 hPa 30.26 in /  1024.6 hPa -
Precipitation: 0.00 in /  0 mm    
Historical Graphs
 
 
Tabular Data for November 1, 2011
Time Temperature Dew Point Pressure Wind Wind Speed Wind Gust Humidity Daily Rainfall
00:04 41.4 °F /  5.2 °C 28.1 °F /  -2.2 °C 30.28in /  1025.3hPa SSW 4.0mph /  6.4km/h 10.0mph /  16.1km/h 59% 0.00in /  0mm
00:09 41.4 °F /  5.2 °C 28.1 °F /  -2.2 °C 30.28in /  1025.3hPa SSW 2.0mph /  3.2km/h 8.0mph /  12.9km/h 59% 0.00in /  0mm
00:15 41.6 °F /  5.3 °C 27.9 °F /  -2.3 °C 30.27in /  1024.9hPa SSW 6.0mph /  9.7km/h 11.0mph /  17.7km/h 58% 0.00in /  0mm
00:19 41.9 °F /  5.5 °C 28.2 °F /  -2.1 °C 30.27in /  1024.9hPa SSW 4.0mph /  6.4km/h 11.0mph /  17.7km/h 58% 0.00in /  0mm
00:25 42.0 °F /  5.6 °C 27.9 °F /  -2.3 °C 30.27in /  1024.9hPa SSW 5.0mph /  8km/h 11.0mph /  17.7km/h 57% 0.00in /  0mm
00:30 42.0 °F /  5.6 °C 27.9 °F /  -2.3 °C 30.27in /  1024.9hPa SW 4.0mph /  6.4km/h 10.0mph /  16.1km/h 57% 0.00in /  0mm
00:35 41.8 °F /  5.4 °C 27.7 °F /  -2.4 °C 30.27in /  1024.9hPa SSW 3.0mph /  4.8km/h 10.0mph /  16.1km/h 57% 0.00in /  0mm
00:39 41.6 °F /  5.3 °C 27.5 °F /  -2.5 °C 30.28in /  1025.3hPa SSW 1.0mph /  1.6km/h 8.0mph /  12.9km/h 57% 0.00in /  0mm
00:44 41.3 °F /  5.2 °C 27.6 °F /  -2.4 °C 30.28in /  1025.3hPa SSW 2.0mph /  3.2km/h 7.0mph /  11.3km/h 58% 0.00in /  0mm
00:50 41.0 °F /  5 °C 27.4 °F /  -2.6 °C 30.28in /  1025.3hPa Calm   7.0mph /  11.3km/h 58% 0.00in /  0mm
00:54 40.8 °F /  4.9 °C 27.2 °F /  -2.7 °C 30.28in /  1025.3hPa SSW 3.0mph /  4.8km/h 6.0mph /  9.7km/h 58% 0.00in /  0mm
00:59 40.7 °F /  4.8 °C 27.1 °F /  -2.7 °C 30.28in /  1025.3hPa SSW 1.0mph /  1.6km/h 6.0mph /  9.7km/h 58% 0.00in /  0mm
01:04 40.4 °F /  4.7 °C 27.2 °F /  -2.7 °C 30.28in /  1025.3hPa SSW 1.0mph /  1.6km/h 6.0mph /  9.7km/h 59% 0.00in /  0mm
01:10 40.1 °F /  4.5 °C 26.9 °F /  -2.8 °C 30.28in /  1025.3hPa SSW 3.0mph /  4.8km/h 8.0mph /  12.9km/h 59% 0.00in /  0mm
01:14 40.0 °F /  4.4 °C 26.8 °F /  -2.9 °C 30.28in /  1025.3hPa SSW 4.0mph /  6.4km/h 9.0mph /  14.5km/h 59% 0.00in /  0mm
01:19 40.2 °F /  4.6 °C 27.0 °F /  -2.8 °C 30.28in /  1025.3hPa SSW 1.0mph /  1.6km/h 9.0mph /  14.5km/h 59% 0.00in /  0mm
01:24 40.3 °F /  4.6 °C 27.1 °F /  -2.7 °C 30.28in /  1025.3hPa SSW 4.0mph /  6.4km/h 7.0mph /  11.3km/h 59% 0.00in /  0mm
01:30 40.4 °F /  4.7 °C 27.2 °F /  -2.7 °C 30.29in /  1025.6hPa SSW 1.0mph /  1.6km/h 7.0mph /  11.3km/h 59% 0.00in /  0mm
01:35 40.2 °F /  4.6 °C 27.0 °F /  -2.8 °C 30.28in /  1025.3hPa SSW 2.0mph /  3.2km/h 6.0mph /  9.7km/h 59% 0.00in /  0mm
01:40 40.0 °F /  4.4 °C 27.2 °F /  -2.7 °C 30.28in /  1025.3hPa SSW 2.0mph /  3.2km/h 6.0mph /  9.7km/h 60% 0.00in /  0mm
01:44 39.9 °F /  4.4 °C 27.1 °F /  -2.7 °C 30.28in /  1025.3hPa SSW 2.0mph /  3.2km/h 6.0mph /  9.7km/h 60% 0.00in /  0mm
01:50 39.7 °F /  4.3 °C 27.4 °F /  -2.6 °C 30.28in /  1025.3hPa SSW 2.0mph /  3.2km/h 5.0mph /  8km/h 61% 0.00in /  0mm
01:54 39.6 °F /  4.2 °C 27.3 °F /  -2.6 °C 30.28in /  1025.3hPa SSW 1.0mph /  1.6km/h 8.0mph /  12.9km/h 61% 0.00in /  0mm
01:59 39.6 °F /  4.2 °C 27.7 °F /  -2.4 °C 30.28in /  1025.3hPa SSW 1.0mph /  1.6km/h 8.0mph /  12.9km/h 62% 0.00in /  0mm
02:04 39.6 °F /  4.2 °C 27.7 °F /  -2.4 °C 30.28in /  1025.3hPa SSW 1.0mph /  1.6km/h 6.0mph /  9.7km/h 62% 0.00in /  0mm
02:09 39.5 °F /  4.2 °C 27.6 °F /  -2.4 °C 30.28in /  1025.3hPa SSW 1.0mph /  1.6km/h 6.0mph /  9.7km/h 62% 0.00in /  0mm
02:15 39.4 °F /  4.1 °C 27.9 °F /  -2.3 °C 30.28in /  1025.3hPa SSW 1.0mph /  1.6km/h 5.0mph /  8km/h 63% 0.00in /  0mm
02:19 39.3 °F /  4.1 °C 27.8 °F /  -2.3 °C 30.28in /  1025.3hPa SSW 1.0mph /  1.6km/h 5.0mph /  8km/h 63% 0.00in /  0mm
02:24 39.3 °F /  4.1 °C 28.1 °F /  -2.2 °C 30.28in /  1025.3hPa SSW 2.0mph /  3.2km/h 7.0mph /  11.3km/h 64% 0.00in /  0mm
02:30 39.4 °F /  4.1 °C 27.9 °F /  -2.3 °C 30.28in /  1025.3hPa SW 2.0mph /  3.2km/h 7.0mph /  11.3km/h 63% 0.00in /  0mm
02:34 39.5 °F /  4.2 °C 28.3 °F /  -2.1 °C 30.28in /  1025.3hPa Calm   7.0mph /  11.3km/h 64% 0.00in /  0mm
02:39 39.6 °F /  4.2 °C 28.4 °F /  -2 °C 30.28in /  1025.3hPa SSW 2.0mph /  3.2km/h 6.0mph /  9.7km/h 64% 0.00in /  0mm
02:45 39.6 °F /  4.2 °C 28.4 °F /  -2 °C 30.28in /  1025.3hPa SSW 1.0mph /  1.6km/h 6.0mph /  9.7km/h 64% 0.00in /  0mm
02:49 39.7 °F /  4.3 °C 28.5 °F /  -1.9 °C 30.28in /  1025.3hPa Calm   6.0mph /  9.7km/h 64% 0.00in /  0mm
02:54 39.6 °F /  4.2 °C 28.4 °F /  -2 °C 30.28in /  1025.3hPa Calm   6.0mph /  9.7km/h 64% 0.00in /  0mm
02:59 39.5 °F /  4.2 °C 28.3 °F /  -2.1 °C 30.28in /  1025.3hPa SSW 1.0mph /  1.6km/h 4.0mph /  6.4km/h 64% 0.00in /  0mm
03:04 39.5 °F /  4.2 °C 28.7 °F /  -1.8 °C 30.28in /  1025.3hPa SW 2.0mph /  3.2km/h 6.0mph /  9.7km/h 65% 0.00in /  0mm
03:09 39.4 °F /  4.1 °C 28.6 °F /  -1.9 °C 30.28in /  1025.3hPa Calm   6.0mph /  9.7km/h 65% 0.00in /  0mm
03:14 39.4 °F /  4.1 °C 28.6 °F /  -1.9 °C 30.28in /  1025.3hPa Calm   4.0mph /  6.4km/h 65% 0.00in /  0mm
03:19 39.3 °F /  4.1 °C 28.5 °F /  -1.9 °C 30.28in /  1025.3hPa Calm   1.0mph /  1.6km/h 65% 0.00in /  0mm
03:24 39.2 °F /  4 °C 28.8 °F /  -1.8 °C 30.28in /  1025.3hPa Calm   1.0mph /  1.6km/h 66% 0.00in /  0mm
03:29 39.1 °F /  3.9 °C 28.7 °F /  -1.8 °C 30.28in /  1025.3hPa SSW 1.0mph /  1.6km/h 4.0mph /  6.4km/h 66% 0.00in /  0mm
03:35 39.2 °F /  4 °C 28.8 °F /  -1.8 °C 30.28in /  1025.3hPa SSW 1.0mph /  1.6km/h 6.0mph /  9.7km/h 66% 0.00in /  0mm
03:39 39.2 °F /  4 °C 28.8 °F /  -1.8 °C 30.28in /  1025.3hPa SSW 1.0mph /  1.6km/h 6.0mph /  9.7km/h 66% 0.00in /  0mm
03:44 39.4 °F /  4.1 °C 29.0 °F /  -1.7 °C 30.28in /  1025.3hPa SSW 1.0mph /  1.6km/h 6.0mph /  9.7km/h 66% 0.00in /  0mm
03:50 39.4 °F /  4.1 °C 29.0 °F /  -1.7 °C 30.28in /  1025.3hPa SSW 1.0mph /  1.6km/h 5.0mph /  8km/h 66% 0.00in /  0mm
03:54 39.3 °F /  4.1 °C 29.3 °F /  -1.5 °C 30.28in /  1025.3hPa SSW 2.0mph /  3.2km/h 6.0mph /  9.7km/h 67% 0.00in /  0mm
03:59 39.3 °F /  4.1 °C 29.3 °F /  -1.5 °C 30.28in /  1025.3hPa SSW 3.0mph /  4.8km/h 7.0mph /  11.3km/h 67% 0.00in /  0mm
04:04 39.4 °F /  4.1 °C 29.4 °F /  -1.4 °C 30.28in /  1025.3hPa SSW 4.0mph /  6.4km/h 8.0mph /  12.9km/h 67% 0.00in /  0mm
04:09 39.4 °F /  4.1 °C 29.4 °F /  -1.4 °C 30.28in /  1025.3hPa SW 3.0mph /  4.8km/h 8.0mph /  12.9km/h 67% 0.00in /  0mm
04:14 39.5 °F /  4.2 °C 29.5 °F /  -1.4 °C 30.28in /  1025.3hPa SW 3.0mph /  4.8km/h 7.0mph /  11.3km/h 67% 0.00in /  0mm
04:20 39.4 °F /  4.1 °C 29.4 °F /  -1.4 °C 30.28in /  1025.3hPa Calm   7.0mph /  11.3km/h 67% 0.00in /  0mm
04:29 39.2 °F /  4 °C 29.5 °F /  -1.4 °C 30.29in /  1025.6hPa SSW 1.0mph /  1.6km/h 6.0mph /  9.7km/h 68% 0.00in /  0mm
04:34 39.1 °F /  3.9 °C 29.4 °F /  -1.4 °C 30.29in /  1025.6hPa SSW 2.0mph /  3.2km/h 6.0mph /  9.7km/h 68% 0.00in /  0mm
04:40 39.1 °F /  3.9 °C 29.4 °F /  -1.4 °C 30.29in /  1025.6hPa Calm   6.0mph /  9.7km/h 68% 0.00in /  0mm
04:44 38.9 °F /  3.8 °C 29.6 °F /  -1.3 °C 30.29in /  1025.6hPa Calm   5.0mph /  8km/h 69% 0.00in /  0mm
04:49 38.7 °F /  3.7 °C 29.4 °F /  -1.4 °C 30.29in /  1025.6hPa SSW 2.0mph /  3.2km/h 5.0mph /  8km/h 69% 0.00in /  0mm
04:54 38.7 °F /  3.7 °C 29.4 °F /  -1.4 °C 30.29in /  1025.6hPa SSW 3.0mph /  4.8km/h 7.0mph /  11.3km/h 69% 0.00in /  0mm
04:59 38.8 °F /  3.8 °C 29.5 °F /  -1.4 °C 30.29in /  1025.6hPa SSW 2.0mph /  3.2km/h 7.0mph /  11.3km/h 69% 0.00in /  0mm
05:04 38.8 °F /  3.8 °C 29.5 °F /  -1.4 °C 30.29in /  1025.6hPa SSW 1.0mph /  1.6km/h 7.0mph /  11.3km/h 69% 0.00in /  0mm
05:09 38.7 °F /  3.7 °C 29.4 °F /  -1.4 °C 30.29in /  1025.6hPa SSW 2.0mph /  3.2km/h 7.0mph /  11.3km/h 69% 0.00in /  0mm
05:14 38.7 °F /  3.7 °C 29.8 °F /  -1.2 °C 30.30in /  1026hPa SSW 1.0mph /  1.6km/h 7.0mph /  11.3km/h 70% 0.00in /  0mm
05:19 38.5 °F /  3.6 °C 29.6 °F /  -1.3 °C 30.30in /  1026hPa SSW 1.0mph /  1.6km/h 4.0mph /  6.4km/h 70% 0.00in /  0mm
05:24 38.3 °F /  3.5 °C 29.4 °F /  -1.4 °C 30.30in /  1026hPa SSW 1.0mph /  1.6km/h 5.0mph /  8km/h 70% 0.00in /  0mm
05:29 38.2 °F /  3.4 °C 29.6 °F /  -1.3 °C 30.30in /  1026hPa SSW 1.0mph /  1.6km/h 5.0mph /  8km/h 71% 0.00in /  0mm
05:34 38.1 °F /  3.4 °C 29.5 °F /  -1.4 °C 30.30in /  1026hPa SSW 1.0mph /  1.6km/h 5.0mph /  8km/h 71% 0.00in /  0mm
05:39 38.0 °F /  3.3 °C 29.4 °F /  -1.4 °C 30.30in /  1026hPa SSW 2.0mph /  3.2km/h 6.0mph /  9.7km/h 71% 0.00in /  0mm
05:44 38.1 °F /  3.4 °C 29.9 °F /  -1.2 °C 30.30in /  1026hPa SSW 1.0mph /  1.6km/h 6.0mph /  9.7km/h 72% 0.00in /  0mm
05:49 38.0 °F /  3.3 °C 29.8 °F /  -1.2 °C 30.30in /  1026hPa SSW 1.0mph /  1.6km/h 5.0mph /  8km/h 72% 0.00in /  0mm
05:54 38.0 °F /  3.3 °C 29.8 °F /  -1.2 °C 30.30in /  1026hPa SSW 3.0mph /  4.8km/h 6.0mph /  9.7km/h 72% 0.00in /  0mm
05:59 38.0 °F /  3.3 °C 29.8 °F /  -1.2 °C 30.30in /  1026hPa SSW 2.0mph /  3.2km/h 6.0mph /  9.7km/h 72% 0.00in /  0mm
06:04 37.8 °F /  3.2 °C 29.6 °F /  -1.3 °C 30.30in /  1026hPa SSW 3.0mph /  4.8km/h 6.0mph /  9.7km/h 72% 0.00in /  0mm
06:09 37.6 °F /  3.1 °C 29.4 °F /  -1.4 °C 30.29in /  1025.6hPa SSW 2.0mph /  3.2km/h 6.0mph /  9.7km/h 72% 0.00in /  0mm
06:14 37.7 °F /  3.2 °C 29.8 °F /  -1.2 °C 30.29in /  1025.6hPa SSW 2.0mph /  3.2km/h 7.0mph /  11.3km/h 73% 0.00in /  0mm
06:19 37.6 °F /  3.1 °C 29.7 °F /  -1.3 °C 30.29in /  1025.6hPa SSW 2.0mph /  3.2km/h 7.0mph /  11.3km/h 73% 0.00in /  0mm
06:25 37.4 °F /  3 °C 29.5 °F /  -1.4 °C 30.29in /  1025.6hPa SSW 3.0mph /  4.8km/h 5.0mph /  8km/h 73% 0.00in /  0mm
06:29 37.2 °F /  2.9 °C 29.7 °F /  -1.3 °C 30.29in /  1025.6hPa SSW 2.0mph /  3.2km/h 5.0mph /  8km/h 74% 0.00in /  0mm
06:34 37.3 °F /  2.9 °C 29.8 °F /  -1.2 °C 30.29in /  1025.6hPa SSW 2.0mph /  3.2km/h 7.0mph /  11.3km/h 74% 0.00in /  0mm
06:39 37.2 °F /  2.9 °C 29.7 °F /  -1.3 °C 30.29in /  1025.6hPa SSW 2.0mph /  3.2km/h 7.0mph /  11.3km/h 74% 0.00in /  0mm
06:44 37.0 °F /  2.8 °C 29.5 °F /  -1.4 °C 30.29in /  1025.6hPa SW 2.0mph /  3.2km/h 5.0mph /  8km/h 74% 0.00in /  0mm
06:49 36.9 °F /  2.7 °C 29.4 °F /  -1.4 °C 30.29in /  1025.6hPa SSW 2.0mph /  3.2km/h 5.0mph /  8km/h 74% 0.00in /  0mm
06:54 36.8 °F /  2.7 °C 29.3 °F /  -1.5 °C 30.29in /  1025.6hPa SSW 3.0mph /  4.8km/h 7.0mph /  11.3km/h 74% 0.00in /  0mm
06:59 36.9 °F /  2.7 °C 29.4 °F /  -1.4 °C 30.30in /  1026hPa SSW 2.0mph /  3.2km/h 7.0mph /  11.3km/h 74% 0.00in /  0mm
07:04 37.0 °F /  2.8 °C 29.5 °F /  -1.4 °C 30.30in /  1026hPa SSW 1.0mph /  1.6km/h 7.0mph /  11.3km/h 74% 0.00in /  0mm
07:09 36.9 °F /  2.7 °C 29.4 °F /  -1.4 °C 30.30in /  1026hPa SSW 2.0mph /  3.2km/h 6.0mph /  9.7km/h 74% 0.00in /  0mm
07:14 36.6 °F /  2.6 °C 29.1 °F /  -1.6 °C 30.30in /  1026hPa SSW 1.0mph /  1.6km/h 5.0mph /  8km/h 74% 0.00in /  0mm
07:19 36.5 °F /  2.5 °C 29.3 °F /  -1.5 °C 30.30in /  1026hPa SSW 2.0mph /  3.2km/h 5.0mph /  8km/h 75% 0.00in /  0mm
07:24 36.4 °F /  2.4 °C 29.2 °F /  -1.6 °C 30.30in /  1026hPa SSW 1.0mph /  1.6km/h 5.0mph /  8km/h 75% 0.00in /  0mm
07:30 36.2 °F /  2.3 °C 29.4 °F /  -1.4 °C 30.30in /  1026hPa SSW 1.0mph /  1.6km/h 5.0mph /  8km/h 76% 0.00in /  0mm
07:34 36.0 °F /  2.2 °C 29.2 °F /  -1.6 °C 30.30in /  1026hPa Calm   5.0mph /  8km/h 76% 0.00in /  0mm
07:40 35.7 °F /  2.1 °C 28.9 °F /  -1.7 °C 30.30in /  1026hPa Calm   4.0mph /  6.4km/h 76% 0.00in /  0mm
07:44 35.5 °F /  1.9 °C 29.0 °F /  -1.7 °C 30.31in /  1026.3hPa SSW 1.0mph /  1.6km/h 4.0mph /  6.4km/h 77% 0.00in /  0mm
07:50 35.3 °F /  1.8 °C 28.8 °F /  -1.8 °C 30.31in /  1026.3hPa SSW 1.0mph /  1.6km/h 4.0mph /  6.4km/h 77% 0.00in /  0mm
07:54 35.3 °F /  1.8 °C 29.1 °F /  -1.6 °C 30.31in /  1026.3hPa Calm   4.0mph /  6.4km/h 78% 0.00in /  0mm
07:59 35.2 °F /  1.8 °C 29.0 °F /  -1.7 °C 30.31in /  1026.3hPa SSW 2.0mph /  3.2km/h 4.0mph /  6.4km/h 78% 0.00in /  0mm
08:05 35.3 °F /  1.8 °C 29.4 °F /  -1.4 °C 30.31in /  1026.3hPa SSW 1.0mph /  1.6km/h 4.0mph /  6.4km/h 79% 0.00in /  0mm
08:10 35.6 °F /  2 °C 29.7 °F /  -1.3 °C 30.31in /  1026.3hPa SSW 1.0mph /  1.6km/h 4.0mph /  6.4km/h 79% 0.00in /  0mm
08:14 35.8 °F /  2.1 °C 29.9 °F /  -1.2 °C 30.31in /  1026.3hPa SSW 2.0mph /  3.2km/h 6.0mph /  9.7km/h 79% 0.00in /  0mm
08:19 35.9 °F /  2.2 °C 29.7 °F /  -1.3 °C 30.31in /  1026.3hPa SSW 3.0mph /  4.8km/h 6.0mph /  9.7km/h 78% 0.00in /  0mm
08:25 36.2 °F /  2.3 °C 30.3 °F /  -0.9 °C 30.31in /  1026.3hPa SSW 2.0mph /  3.2km/h 5.0mph /  8km/h 79% 0.00in /  0mm
08:30 36.8 °F /  2.7 °C 30.9 °F /  -0.6 °C 30.31in /  1026.3hPa SSW 1.0mph /  1.6km/h 6.0mph /  9.7km/h 79% 0.00in /  0mm
08:35 37.6 °F /  3.1 °C 31.4 °F /  -0.3 °C 30.31in /  1026.3hPa SSW 2.0mph /  3.2km/h 6.0mph /  9.7km/h 78% 0.00in /  0mm
08:39 38.6 °F /  3.7 °C 32.0 °F /  0 °C 30.31in /  1026.3hPa SSW 2.0mph /  3.2km/h 6.0mph /  9.7km/h 77% 0.00in /  0mm
08:45 39.5 °F /  4.2 °C 32.9 °F /  0.5 °C 30.31in /  1026.3hPa SSW 2.0mph /  3.2km/h 5.0mph /  8km/h 77% 0.00in /  0mm
08:49 40.4 °F /  4.7 °C 32.8 °F /  0.4 °C 30.31in /  1026.3hPa SSW 4.0mph /  6.4km/h 6.0mph /  9.7km/h 74% 0.00in /  0mm
08:55 41.1 °F /  5.1 °C 33.1 °F /  0.6 °C 30.32in /  1026.6hPa SW 4.0mph /  6.4km/h 7.0mph /  11.3km/h 73% 0.00in /  0mm
09:00 41.8 °F /  5.4 °C 33.4 °F /  0.8 °C 30.32in /  1026.6hPa SSW 4.0mph /  6.4km/h 9.0mph /  14.5km/h 72% 0.00in /  0mm
09:04 42.2 °F /  5.7 °C 33.5 °F /  0.8 °C 30.32in /  1026.6hPa SSW 5.0mph /  8km/h 9.0mph /  14.5km/h 71% 0.00in /  0mm
09:09 42.5 °F /  5.8 °C 33.4 °F /  0.8 °C 30.32in /  1026.6hPa SW 3.0mph /  4.8km/h 8.0mph /  12.9km/h 70% 0.00in /  0mm
09:15 42.8 °F /  6 °C 33.7 °F /  0.9 °C 30.32in /  1026.6hPa SW 5.0mph /  8km/h 9.0mph /  14.5km/h 70% 0.00in /  0mm
09:19 43.1 °F /  6.2 °C 34.0 °F /  1.1 °C 30.32in /  1026.6hPa SSW 3.0mph /  4.8km/h 9.0mph /  14.5km/h 70% 0.00in /  0mm
09:24 43.3 °F /  6.3 °C 33.8 °F /  1 °C 30.32in /  1026.6hPa SSW 4.0mph /  6.4km/h 10.0mph /  16.1km/h 69% 0.00in /  0mm
09:30 43.7 °F /  6.5 °C 33.8 °F /  1 °C 30.32in /  1026.6hPa SSW 5.0mph /  8km/h 10.0mph /  16.1km/h 68% 0.00in /  0mm
09:35 44.0 °F /  6.7 °C 33.8 °F /  1 °C 30.32in /  1026.6hPa SSW 4.0mph /  6.4km/h 11.0mph /  17.7km/h 67% 0.00in /  0mm
09:40 44.3 °F /  6.8 °C 34.0 °F /  1.1 °C 30.32in /  1026.6hPa SSW 3.0mph /  4.8km/h 11.0mph /  17.7km/h 67% 0.00in /  0mm
09:44 44.4 °F /  6.9 °C 34.1 °F /  1.2 °C 30.32in /  1026.6hPa SW 6.0mph /  9.7km/h 10.0mph /  16.1km/h 67% 0.00in /  0mm
09:49 44.4 °F /  6.9 °C 34.1 °F /  1.2 °C 30.32in /  1026.6hPa SW 5.0mph /  8km/h 10.0mph /  16.1km/h 67% 0.00in /  0mm
09:55 44.6 °F /  7 °C 33.9 °F /  1.1 °C 30.31in /  1026.3hPa SW 4.0mph /  6.4km/h 12.0mph /  19.3km/h 66% 0.00in /  0mm
09:59 44.9 °F /  7.2 °C 34.2 °F /  1.2 °C 30.31in /  1026.3hPa SSW 5.0mph /  8km/h 12.0mph /  19.3km/h 66% 0.00in /  0mm
10:04 45.1 °F /  7.3 °C 34.4 °F /  1.3 °C 30.31in /  1026.3hPa SSW 4.0mph /  6.4km/h 12.0mph /  19.3km/h 66% 0.00in /  0mm
10:09 45.4 °F /  7.4 °C 34.3 °F /  1.3 °C 30.31in /  1026.3hPa SSW 4.0mph /  6.4km/h 10.0mph /  16.1km/h 65% 0.00in /  0mm
10:15 45.9 °F /  7.7 °C 34.8 °F /  1.6 °C 30.31in /  1026.3hPa SW 5.0mph /  8km/h 10.0mph /  16.1km/h 65% 0.00in /  0mm
10:19 45.8 °F /  7.7 °C 34.3 °F /  1.3 °C 30.31in /  1026.3hPa WSW 5.0mph /  8km/h 10.0mph /  16.1km/h 64% 0.00in /  0mm
10:25 46.0 °F /  7.8 °C 34.5 °F /  1.4 °C 30.31in /  1026.3hPa SW 6.0mph /  9.7km/h 10.0mph /  16.1km/h 64% 0.00in /  0mm
10:29 46.3 °F /  7.9 °C 35.2 °F /  1.8 °C 30.31in /  1026.3hPa SSW 1.0mph /  1.6km/h 10.0mph /  16.1km/h 65% 0.00in /  0mm
10:35 46.7 °F /  8.2 °C 34.8 °F /  1.6 °C 30.31in /  1026.3hPa SW 4.0mph /  6.4km/h 10.0mph /  16.1km/h 63% 0.00in /  0mm
10:40 47.1 °F /  8.4 °C 34.8 °F /  1.6 °C 30.31in /  1026.3hPa SSW 4.0mph /  6.4km/h 10.0mph /  16.1km/h 62% 0.00in /  0mm
10:45 47.5 °F /  8.6 °C 35.1 °F /  1.7 °C 30.31in /  1026.3hPa South 3.0mph /  4.8km/h 8.0mph /  12.9km/h 62% 0.00in /  0mm
10:49 47.7 °F /  8.7 °C 34.9 °F /  1.6 °C 30.31in /  1026.3hPa SSW 4.0mph /  6.4km/h 8.0mph /  12.9km/h 61% 0.00in /  0mm
10:54 47.8 °F /  8.8 °C 35.0 °F /  1.7 °C 30.31in /  1026.3hPa SSW 5.0mph /  8km/h 9.0mph /  14.5km/h 61% 0.00in /  0mm
11:00 47.7 °F /  8.7 °C 34.1 °F /  1.2 °C 30.31in /  1026.3hPa SSW 7.0mph /  11.3km/h 13.0mph /  20.9km/h 59% 0.00in /  0mm
11:04 47.8 °F /  8.8 °C 35.0 °F /  1.7 °C 30.31in /  1026.3hPa SSW 2.0mph /  3.2km/h 13.0mph /  20.9km/h 61% 0.00in /  0mm
11:09 48.0 °F /  8.9 °C 34.8 °F /  1.6 °C 30.31in /  1026.3hPa SW 5.0mph /  8km/h 10.0mph /  16.1km/h 60% 0.00in /  0mm
11:14 48.3 °F /  9.1 °C 35.1 °F /  1.7 °C 30.31in /  1026.3hPa SSW 5.0mph /  8km/h 12.0mph /  19.3km/h 60% 0.00in /  0mm
11:19 48.2 °F /  9 °C 34.5 °F /  1.4 °C 30.31in /  1026.3hPa SW 6.0mph /  9.7km/h 12.0mph /  19.3km/h 59% 0.00in /  0mm
11:25 48.1 °F /  8.9 °C 34.5 °F /  1.4 °C 30.31in /  1026.3hPa SW 3.0mph /  4.8km/h 11.0mph /  17.7km/h 59% 0.00in /  0mm
11:29 49.1 °F /  9.5 °C 35.8 °F /  2.1 °C 30.31in /  1026.3hPa South 4.0mph /  6.4km/h 10.0mph /  16.1km/h 60% 0.00in /  0mm
11:34 49.8 °F /  9.9 °C 35.2 °F /  1.8 °C 30.31in /  1026.3hPa South 2.0mph /  3.2km/h 7.0mph /  11.3km/h 57% 0.00in /  0mm
11:40 50.1 °F /  10.1 °C 34.6 °F /  1.4 °C 30.31in /  1026.3hPa South 2.0mph /  3.2km/h 7.0mph /  11.3km/h 55% 0.00in /  0mm
11:45 50.5 °F /  10.3 °C 35.8 °F /  2.1 °C 30.31in /  1026.3hPa South 2.0mph /  3.2km/h 6.0mph /  9.7km/h 57% 0.00in /  0mm
11:49 51.0 °F /  10.6 °C 34.9 °F /  1.6 °C 30.31in /  1026.3hPa South 1.0mph /  1.6km/h 6.0mph /  9.7km/h 54% 0.00in /  0mm
11:54 51.1 °F /  10.6 °C 35.0 °F /  1.7 °C 30.31in /  1026.3hPa Calm   7.0mph /  11.3km/h 54% 0.00in /  0mm
11:59 51.1 °F /  10.6 °C 35.5 °F /  1.9 °C 30.30in /  1026hPa Calm   7.0mph /  11.3km/h 55% 0.00in /  0mm
12:04 51.5 °F /  10.8 °C 34.5 °F /  1.4 °C 30.30in /  1026hPa SSW 1.0mph /  1.6km/h 7.0mph /  11.3km/h 52% 0.00in /  0mm
12:09 51.9 °F /  11.1 °C 34.8 °F /  1.6 °C 30.30in /  1026hPa WSW 1.0mph /  1.6km/h 4.0mph /  6.4km/h 52% 0.00in /  0mm
12:14 52.0 °F /  11.1 °C 34.9 °F /  1.6 °C 30.30in /  1026hPa West 3.0mph /  4.8km/h 6.0mph /  9.7km/h 52% 0.00in /  0mm
12:19 51.8 °F /  11 °C 35.7 °F /  2.1 °C 30.30in /  1026hPa SW 4.0mph /  6.4km/h 6.0mph /  9.7km/h 54% 0.00in /  0mm
12:24 51.7 °F /  10.9 °C 34.6 °F /  1.4 °C 30.30in /  1026hPa WNW 4.0mph /  6.4km/h 7.0mph /  11.3km/h 52% 0.00in /  0mm
12:30 51.4 °F /  10.8 °C 34.4 °F /  1.3 °C 30.30in /  1026hPa WNW 3.0mph /  4.8km/h 8.0mph /  12.9km/h 52% 0.00in /  0mm
12:34 51.2 °F /  10.7 °C 34.2 °F /  1.2 °C 30.29in /  1025.6hPa WSW 2.0mph /  3.2km/h 8.0mph /  12.9km/h 52% 0.00in /  0mm
12:39 51.4 °F /  10.8 °C 34.4 °F /  1.3 °C 30.29in /  1025.6hPa WSW 2.0mph /  3.2km/h 7.0mph /  11.3km/h 52% 0.00in /  0mm
12:45 51.6 °F /  10.9 °C 34.1 °F /  1.2 °C 30.29in /  1025.6hPa West 4.0mph /  6.4km/h 7.0mph /  11.3km/h 51% 0.00in /  0mm
12:49 51.7 °F /  10.9 °C 34.6 °F /  1.4 °C 30.29in /  1025.6hPa NW 3.0mph /  4.8km/h 7.0mph /  11.3km/h 52% 0.00in /  0mm
12:54 51.8 °F /  11 °C 34.3 °F /  1.3 °C 30.29in /  1025.6hPa WSW 3.0mph /  4.8km/h 7.0mph /  11.3km/h 51% 0.00in /  0mm
12:59 52.0 °F /  11.1 °C 34.4 °F /  1.3 °C 30.28in /  1025.3hPa WNW 2.0mph /  3.2km/h 8.0mph /  12.9km/h 51% 0.00in /  0mm
13:04 52.4 °F /  11.3 °C 35.3 °F /  1.8 °C 30.28in /  1025.3hPa NNW 3.0mph /  4.8km/h 8.0mph /  12.9km/h 52% 0.00in /  0mm
13:09 52.7 °F /  11.5 °C 34.6 °F /  1.4 °C 30.28in /  1025.3hPa West 1.0mph /  1.6km/h 7.0mph /  11.3km/h 50% 0.00in /  0mm
13:14 52.4 °F /  11.3 °C 34.8 °F /  1.6 °C 30.28in /  1025.3hPa West 4.0mph /  6.4km/h 7.0mph /  11.3km/h 51% 0.00in /  0mm
13:19 52.2 °F /  11.2 °C 34.6 °F /  1.4 °C 30.28in /  1025.3hPa West 1.0mph /  1.6km/h 7.0mph /  11.3km/h 51% 0.00in /  0mm
13:25 52.2 °F /  11.2 °C 34.6 °F /  1.4 °C 30.28in /  1025.3hPa West 4.0mph /  6.4km/h 7.0mph /  11.3km/h 51% 0.00in /  0mm
13:30 52.4 °F /  11.3 °C 34.8 °F /  1.6 °C 30.27in /  1024.9hPa West 3.0mph /  4.8km/h 7.0mph /  11.3km/h 51% 0.00in /  0mm
13:34 52.6 °F /  11.4 °C 34.5 °F /  1.4 °C 30.27in /  1024.9hPa WNW 3.0mph /  4.8km/h 8.0mph /  12.9km/h 50% 0.00in /  0mm
13:44 52.9 °F /  11.6 °C 35.3 °F /  1.8 °C 30.28in /  1025.3hPa SW 2.0mph /  3.2km/h 6.0mph /  9.7km/h 51% 0.00in /  0mm
13:49 52.9 °F /  11.6 °C 35.3 °F /  1.8 °C 30.28in /  1025.3hPa Calm   6.0mph /  9.7km/h 51% 0.00in /  0mm
13:54 52.6 °F /  11.4 °C 35.0 °F /  1.7 °C 30.28in /  1025.3hPa West 3.0mph /  4.8km/h 5.0mph /  8km/h 51% 0.00in /  0mm
13:59 52.6 °F /  11.4 °C 35.5 °F /  1.9 °C 30.28in /  1025.3hPa WNW 4.0mph /  6.4km/h 7.0mph /  11.3km/h 52% 0.00in /  0mm
14:04 52.8 °F /  11.6 °C 35.2 °F /  1.8 °C 30.27in /  1024.9hPa WNW 2.0mph /  3.2km/h 7.0mph /  11.3km/h 51% 0.00in /  0mm
14:09 53.2 °F /  11.8 °C 35.5 °F /  1.9 °C 30.27in /  1024.9hPa WNW 4.0mph /  6.4km/h 6.0mph /  9.7km/h 51% 0.00in /  0mm
14:14 53.3 °F /  11.8 °C 35.6 °F /  2 °C 30.27in /  1024.9hPa West 1.0mph /  1.6km/h 6.0mph /  9.7km/h 51% 0.00in /  0mm
14:19 53.6 °F /  12 °C 35.4 °F /  1.9 °C 30.27in /  1024.9hPa Calm   6.0mph /  9.7km/h 50% 0.00in /  0mm
14:24 53.1 °F /  11.7 °C 35.0 °F /  1.7 °C 30.27in /  1024.9hPa West 1.0mph /  1.6km/h 6.0mph /  9.7km/h 50% 0.00in /  0mm
14:29 52.6 °F /  11.4 °C 35.5 °F /  1.9 °C 30.27in /  1024.9hPa SSW 3.0mph /  4.8km/h 6.0mph /  9.7km/h 52% 0.00in /  0mm
14:34 53.2 °F /  11.8 °C 35.5 °F /  1.9 °C 30.27in /  1024.9hPa SSW 1.0mph /  1.6km/h 6.0mph /  9.7km/h 51% 0.00in /  0mm
14:39 53.7 °F /  12.1 °C 35.5 °F /  1.9 °C 30.26in /  1024.6hPa Calm   5.0mph /  8km/h 50% 0.00in /  0mm
14:44 54.1 °F /  12.3 °C 35.4 °F /  1.9 °C 30.26in /  1024.6hPa Calm   4.0mph /  6.4km/h 49% 0.00in /  0mm
14:49 54.1 °F /  12.3 °C 35.9 °F /  2.2 °C 30.26in /  1024.6hPa SW 3.0mph /  4.8km/h 7.0mph /  11.3km/h 50% 0.00in /  0mm
14:54 54.3 °F /  12.4 °C 36.1 °F /  2.3 °C 30.26in /  1024.6hPa SW 1.0mph /  1.6km/h 7.0mph /  11.3km/h 50% 0.00in /  0mm
14:59 54.3 °F /  12.4 °C 36.1 °F /  2.3 °C 30.26in /  1024.6hPa South 2.0mph /  3.2km/h 6.0mph /  9.7km/h 50% 0.00in /  0mm
15:04 54.5 °F /  12.5 °C 35.7 °F /  2.1 °C 30.26in /  1024.6hPa SW 3.0mph /  4.8km/h 6.0mph /  9.7km/h 49% 0.00in /  0mm
15:09 54.4 °F /  12.4 °C 35.6 °F /  2 °C 30.26in /  1024.6hPa Calm   6.0mph /  9.7km/h 49% 0.00in /  0mm
15:14 54.6 °F /  12.6 °C 35.8 °F /  2.1 °C 30.27in /  1024.9hPa Calm   5.0mph /  8km/h 49% 0.00in /  0mm
15:19 54.5 °F /  12.5 °C 35.2 °F /  1.8 °C 30.27in /  1024.9hPa SSW 1.0mph /  1.6km/h 7.0mph /  11.3km/h 48% 0.00in /  0mm
15:24 54.6 °F /  12.6 °C 35.8 °F /  2.1 °C 30.27in /  1024.9hPa SSE 1.0mph /  1.6km/h 7.0mph /  11.3km/h 49% 0.00in /  0mm
15:30 54.2 °F /  12.3 °C 35.5 °F /  1.9 °C 30.26in /  1024.6hPa SSE 1.0mph /  1.6km/h 7.0mph /  11.3km/h 49% 0.00in /  0mm
15:34 54.1 °F /  12.3 °C 36.4 °F /  2.4 °C 30.26in /  1024.6hPa Calm   6.0mph /  9.7km/h 51% 0.00in /  0mm
15:39 54.4 °F /  12.4 °C 35.6 °F /  2 °C 30.26in /  1024.6hPa SSW 4.0mph /  6.4km/h 7.0mph /  11.3km/h 49% 0.00in /  0mm
15:45 54.3 °F /  12.4 °C 36.1 °F /  2.3 °C 30.26in /  1024.6hPa South 1.0mph /  1.6km/h 7.0mph /  11.3km/h 50% 0.00in /  0mm
15:49 53.9 °F /  12.2 °C 35.7 °F /  2.1 °C 30.26in /  1024.6hPa Calm   6.0mph /  9.7km/h 50% 0.00in /  0mm
15:54 53.7 °F /  12.1 °C 35.5 °F /  1.9 °C 30.26in /  1024.6hPa South 3.0mph /  4.8km/h 6.0mph /  9.7km/h 50% 0.00in /  0mm
15:59 53.8 °F /  12.1 °C 35.6 °F /  2 °C 30.26in /  1024.6hPa SW 3.0mph /  4.8km/h 7.0mph /  11.3km/h 50% 0.00in /  0mm
16:04 53.7 °F /  12.1 °C 35.5 °F /  1.9 °C 30.27in /  1024.9hPa SW 1.0mph /  1.6km/h 7.0mph /  11.3km/h 50% 0.00in /  0mm
16:09 53.5 °F /  11.9 °C 35.8 °F /  2.1 °C 30.27in /  1024.9hPa SSW 1.0mph /  1.6km/h 6.0mph /  9.7km/h 51% 0.00in /  0mm
16:14 53.5 °F /  11.9 °C 36.3 °F /  2.4 °C 30.26in /  1024.6hPa South 1.0mph /  1.6km/h 7.0mph /  11.3km/h 52% 0.00in /  0mm
16:19 53.3 °F /  11.8 °C 35.6 °F /  2 °C 30.26in /  1024.6hPa Calm   7.0mph /  11.3km/h 51% 0.00in /  0mm
16:24 53.2 °F /  11.8 °C 35.5 °F /  1.9 °C 30.26in /  1024.6hPa SSW 3.0mph /  4.8km/h 6.0mph /  9.7km/h 51% 0.00in /  0mm
16:29 53.2 °F /  11.8 °C 35.5 °F /  1.9 °C 30.26in /  1024.6hPa Calm   6.0mph /  9.7km/h 51% 0.00in /  0mm
16:34 53.3 °F /  11.8 °C 35.6 °F /  2 °C 30.26in /  1024.6hPa SSW 1.0mph /  1.6km/h 4.0mph /  6.4km/h 51% 0.00in /  0mm
16:39 53.1 °F /  11.7 °C 35.5 °F /  1.9 °C 30.27in /  1024.9hPa SSW 1.0mph /  1.6km/h 4.0mph /  6.4km/h 51% 0.00in /  0mm
16:44 52.8 °F /  11.6 °C 35.7 °F /  2.1 °C 30.27in /  1024.9hPa SSW 4.0mph /  6.4km/h 7.0mph /  11.3km/h 52% 0.00in /  0mm
16:49 52.4 °F /  11.3 °C 35.3 °F /  1.8 °C 30.27in /  1024.9hPa Calm   7.0mph /  11.3km/h 52% 0.00in /  0mm
16:54 52.3 °F /  11.3 °C 35.7 °F /  2.1 °C 30.27in /  1024.9hPa Calm   6.0mph /  9.7km/h 53% 0.00in /  0mm
16:59 52.2 °F /  11.2 °C 35.6 °F /  2 °C 30.27in /  1024.9hPa Calm   3.0mph /  4.8km/h 53% 0.00in /  0mm
17:04 51.9 °F /  11.1 °C 35.8 °F /  2.1 °C 30.27in /  1024.9hPa SSW 1.0mph /  1.6km/h 3.0mph /  4.8km/h 54% 0.00in /  0mm
17:09 51.2 °F /  10.7 °C 35.1 °F /  1.7 °C 30.27in /  1024.9hPa Calm   4.0mph /  6.4km/h 54% 0.00in /  0mm
17:14 50.6 °F /  10.3 °C 35.0 °F /  1.7 °C 30.27in /  1024.9hPa Calm   4.0mph /  6.4km/h 55% 0.00in /  0mm
17:19 50.1 °F /  10.1 °C 35.0 °F /  1.7 °C 30.27in /  1024.9hPa Calm   1.0mph /  1.6km/h 56% 0.00in /  0mm
17:24 49.2 °F /  9.6 °C 34.6 °F /  1.4 °C 30.27in /  1024.9hPa Calm   1.0mph /  1.6km/h 57% 0.00in /  0mm
17:29 48.5 °F /  9.2 °C 34.8 °F /  1.6 °C 30.27in /  1024.9hPa Calm   2.0mph /  3.2km/h 59% 0.00in /  0mm
18:30 42.2 °F /  5.7 °C 33.5 °F /  0.8 °C 30.27in /  1024.9hPa Calm   1.0mph /  1.6km/h 71% 0.00in /  0mm
18:35 42.3 °F /  5.7 °C 33.9 °F /  1.1 °C 30.27in /  1024.9hPa Calm   1.0mph /  1.6km/h 72% 0.00in /  0mm
18:40 42.2 °F /  5.7 °C 33.5 °F /  0.8 °C 30.27in /  1024.9hPa Calm   1.0mph /  1.6km/h 71% 0.00in /  0mm
18:45 42.1 °F /  5.6 °C 33.7 °F /  0.9 °C 30.27in /  1024.9hPa Calm   1.0mph /  1.6km/h 72% 0.00in /  0mm
18:50 41.9 °F /  5.5 °C 33.5 °F /  0.8 °C 30.28in /  1025.3hPa Calm   1.0mph /  1.6km/h 72% 0.00in /  0mm
18:55 41.5 °F /  5.3 °C 33.2 °F /  0.7 °C 30.28in /  1025.3hPa Calm   1.0mph /  1.6km/h 72% 0.00in /  0mm
19:00 41.2 °F /  5.1 °C 33.2 °F /  0.7 °C 30.28in /  1025.3hPa Calm   2.0mph /  3.2km/h 73% 0.00in /  0mm
19:05 41.0 °F /  5 °C 33.4 °F /  0.8 °C 30.28in /  1025.3hPa Calm   2.0mph /  3.2km/h 74% 0.00in /  0mm
19:10 40.9 °F /  4.9 °C 33.3 °F /  0.7 °C 30.28in /  1025.3hPa Calm   5.0mph /  8km/h 74% 0.00in /  0mm
19:20 40.4 °F /  4.7 °C 33.1 °F /  0.6 °C 30.28in /  1025.3hPa Calm   4.0mph /  6.4km/h 75% 0.00in /  0mm
19:25 40.5 °F /  4.7 °C 33.2 °F /  0.7 °C 30.28in /  1025.3hPa SSW 1.0mph /  1.6km/h 4.0mph /  6.4km/h 75% 0.00in /  0mm
19:30 40.5 °F /  4.7 °C 33.2 °F /  0.7 °C 30.28in /  1025.3hPa Calm   4.0mph /  6.4km/h 75% 0.00in /  0mm
19:35 40.5 °F /  4.7 °C 32.9 °F /  0.5 °C 30.28in /  1025.3hPa Calm   3.0mph /  4.8km/h 74% 0.00in /  0mm
19:45 40.1 °F /  4.5 °C 32.8 °F /  0.4 °C 30.28in /  1025.3hPa Calm   3.0mph /  4.8km/h 75% 0.00in /  0mm
19:55 40.4 °F /  4.7 °C 32.8 °F /  0.4 °C 30.28in /  1025.3hPa Calm   3.0mph /  4.8km/h 74% 0.00in /  0mm
20:00 40.6 °F /  4.8 °C 32.6 °F /  0.3 °C 30.28in /  1025.3hPa SSW 2.0mph /  3.2km/h 4.0mph /  6.4km/h 73% 0.00in /  0mm
20:05 40.9 °F /  4.9 °C 32.6 °F /  0.3 °C 30.28in /  1025.3hPa SSW 1.0mph /  1.6km/h 5.0mph /  8km/h 72% 0.00in /  0mm
20:10 41.0 °F /  5 °C 32.7 °F /  0.4 °C 30.28in /  1025.3hPa SSW 1.0mph /  1.6km/h 5.0mph /  8km/h 72% 0.00in /  0mm
20:15 41.1 °F /  5.1 °C 32.4 °F /  0.2 °C 30.28in /  1025.3hPa SSW 1.0mph /  1.6km/h 5.0mph /  8km/h 71% 0.00in /  0mm
20:20 41.1 °F /  5.1 °C 32.4 °F /  0.2 °C 30.28in /  1025.3hPa Calm   5.0mph /  8km/h 71% 0.00in /  0mm
20:25 41.0 °F /  5 °C 32.3 °F /  0.2 °C 30.28in /  1025.3hPa Calm   5.0mph /  8km/h 71% 0.00in /  0mm
20:30 40.7 °F /  4.8 °C 32.0 °F /  0 °C 30.28in /  1025.3hPa Calm   5.0mph /  8km/h 71% 0.00in /  0mm
20:40 40.0 °F /  4.4 °C 32.1 °F /  0.1 °C 30.28in /  1025.3hPa Calm   3.0mph /  4.8km/h 73% 0.00in /  0mm
20:45 39.7 °F /  4.3 °C 31.8 °F /  -0.1 °C 30.29in /  1025.6hPa Calm   3.0mph /  4.8km/h 73% 0.00in /  0mm
20:50 39.2 °F /  4 °C 31.6 °F /  -0.2 °C 30.29in /  1025.6hPa SSW 2.0mph /  3.2km/h 3.0mph /  4.8km/h 74% 0.00in /  0mm
20:55 39.2 °F /  4 °C 31.9 °F /  -0.1 °C 30.29in /  1025.6hPa Calm   3.0mph /  4.8km/h 75% 0.00in /  0mm
21:00 39.3 °F /  4.1 °C 32.0 °F /  0 °C 30.29in /  1025.6hPa SSW 1.0mph /  1.6km/h 4.0mph /  6.4km/h 75% 0.00in /  0mm
21:05 39.6 °F /  4.2 °C 32.0 °F /  0 °C 30.29in /  1025.6hPa Calm   4.0mph /  6.4km/h 74% 0.00in /  0mm
21:10 39.8 °F /  4.3 °C 32.2 °F /  0.1 °C 30.29in /  1025.6hPa SSW 1.0mph /  1.6km/h 4.0mph /  6.4km/h 74% 0.00in /  0mm
21:15 39.9 °F /  4.4 °C 32.3 °F /  0.2 °C 30.29in /  1025.6hPa Calm   4.0mph /  6.4km/h 74% 0.00in /  0mm
21:20 39.7 °F /  4.3 °C 31.8 °F /  -0.1 °C 30.29in /  1025.6hPa SSW 1.0mph /  1.6km/h 5.0mph /  8km/h 73% 0.00in /  0mm
21:25 39.2 °F /  4 °C 31.6 °F /  -0.2 °C 30.29in /  1025.6hPa Calm   5.0mph /  8km/h 74% 0.00in /  0mm
21:30 38.7 °F /  3.7 °C 31.5 °F /  -0.3 °C 30.29in /  1025.6hPa Calm   3.0mph /  4.8km/h 75% 0.00in /  0mm
21:35 38.2 °F /  3.4 °C 31.3 °F /  -0.4 °C 30.29in /  1025.6hPa Calm   4.0mph /  6.4km/h 76% 0.00in /  0mm
21:40 38.1 °F /  3.4 °C 31.2 °F /  -0.4 °C 30.29in /  1025.6hPa SSW 1.0mph /  1.6km/h 5.0mph /  8km/h 76% 0.00in /  0mm
21:45 38.1 °F /  3.4 °C 31.5 °F /  -0.3 °C 30.29in /  1025.6hPa SSW 1.0mph /  1.6km/h 5.0mph /  8km/h 77% 0.00in /  0mm
21:50 38.3 °F /  3.5 °C 31.7 °F /  -0.2 °C 30.29in /  1025.6hPa SSW 1.0mph /  1.6km/h 5.0mph /  8km/h 77% 0.00in /  0mm
21:55 38.5 °F /  3.6 °C 31.9 °F /  -0.1 °C 30.29in /  1025.6hPa Calm   5.0mph /  8km/h 77% 0.00in /  0mm
22:00 38.9 °F /  3.8 °C 32.0 °F /  0 °C 30.29in /  1025.6hPa SSW 2.0mph /  3.2km/h 5.0mph /  8km/h 76% 0.00in /  0mm
22:05 39.3 °F /  4.1 °C 32.0 °F /  0 °C 30.29in /  1025.6hPa Calm   5.0mph /  8km/h 75% 0.00in /  0mm
22:10 39.6 °F /  4.2 °C 32.0 °F /  0 °C 30.29in /  1025.6hPa SSW 1.0mph /  1.6km/h 5.0mph /  8km/h 74% 0.00in /  0mm
22:15 39.5 °F /  4.2 °C 31.9 °F /  -0.1 °C 30.29in /  1025.6hPa SSW 2.0mph /  3.2km/h 5.0mph /  8km/h 74% 0.00in /  0mm
22:20 39.5 °F /  4.2 °C 31.9 °F /  -0.1 °C 30.29in /  1025.6hPa Calm   7.0mph /  11.3km/h 74% 0.00in /  0mm
22:25 39.5 °F /  4.2 °C 31.9 °F /  -0.1 °C 30.29in /  1025.6hPa SSW 2.0mph /  3.2km/h 7.0mph /  11.3km/h 74% 0.00in /  0mm
22:30 39.3 °F /  4.1 °C 31.7 °F /  -0.2 °C 30.29in /  1025.6hPa Calm   7.0mph /  11.3km/h 74% 0.00in /  0mm
22:35 39.3 °F /  4.1 °C 31.7 °F /  -0.2 °C 30.29in /  1025.6hPa SSW 1.0mph /  1.6km/h 7.0mph /  11.3km/h 74% 0.00in /  0mm
22:40 39.5 °F /  4.2 °C 31.9 °F /  -0.1 °C 30.29in /  1025.6hPa SW 2.0mph /  3.2km/h 6.0mph /  9.7km/h 74% 0.00in /  0mm
22:45 39.5 °F /  4.2 °C 31.9 °F /  -0.1 °C 30.29in /  1025.6hPa SSW 2.0mph /  3.2km/h 6.0mph /  9.7km/h 74% 0.00in /  0mm
22:50 39.3 °F /  4.1 °C 31.7 °F /  -0.2 °C 30.29in /  1025.6hPa SSW 2.0mph /  3.2km/h 6.0mph /  9.7km/h 74% 0.00in /  0mm
22:55 39.1 °F /  3.9 °C 31.5 °F /  -0.3 °C 30.29in /  1025.6hPa SSW 1.0mph /  1.6km/h 4.0mph /  6.4km/h 74% 0.00in /  0mm
23:00 38.8 °F /  3.8 °C 31.2 °F /  -0.4 °C 30.29in /  1025.6hPa SSW 1.0mph /  1.6km/h 5.0mph /  8km/h 74% 0.00in /  0mm
23:05 38.8 °F /  3.8 °C 31.6 °F /  -0.2 °C 30.29in /  1025.6hPa Calm   5.0mph /  8km/h 75% 0.00in /  0mm
23:10 38.7 °F /  3.7 °C 31.5 °F /  -0.3 °C 30.28in /  1025.3hPa Calm   5.0mph /  8km/h 75% 0.00in /  0mm
23:15 38.6 °F /  3.7 °C 31.4 °F /  -0.3 °C 30.29in /  1025.6hPa SSW 2.0mph /  3.2km/h 5.0mph /  8km/h 75% 0.00in /  0mm
23:20 38.5 °F /  3.6 °C 31.3 °F /  -0.4 °C 30.28in /  1025.3hPa SW 2.0mph /  3.2km/h 5.0mph /  8km/h 75% 0.00in /  0mm
23:25 38.5 °F /  3.6 °C 31.3 °F /  -0.4 °C 30.28in /  1025.3hPa SSW 1.0mph /  1.6km/h 5.0mph /  8km/h 75% 0.00in /  0mm
23:30 38.9 °F /  3.8 °C 31.7 °F /  -0.2 °C 30.28in /  1025.3hPa SSW 1.0mph /  1.6km/h 6.0mph /  9.7km/h 75% 0.00in /  0mm
23:40 39.3 °F /  4.1 °C 31.7 °F /  -0.2 °C 30.28in /  1025.3hPa SSW 1.0mph /  1.6km/h 6.0mph /  9.7km/h 74% 0.00in /  0mm
23:45 39.3 °F /  4.1 °C 31.7 °F /  -0.2 °C 30.28in /  1025.3hPa SSW 2.0mph /  3.2km/h 5.0mph /  8km/h 74% 0.00in /  0mm
23:50 39.4 °F /  4.1 °C 31.8 °F /  -0.1 °C 30.28in /  1025.3hPa SSW 1.0mph /  1.6km/h 6.0mph /  9.7km/h 74% 0.00in /  0mm
23:55 39.2 °F /  4 °C 31.6 °F /  -0.2 °C 30.28in /  1025.3hPa SSW 1.0mph /  1.6km/h 7.0mph /  11.3km/h 74% 0.00in /  0mm
Westford Weather
Compliments of Weather Underground

 
 
Current Radar Loop:

Copyright © WestfordWeather.net 2007-2014. All rights reserved.